Austin, Texas
Traffic Map
Current Weather Conditions
Austin, Texas
Overcast
Overcast
70°
Feels Like: 70°
Wind Chill: 70° Ceiling: 1000
Heat Index: 70° Visibility: 10mi
Dew Point: 65° Wind: 5mph
Humidity: 84% Direction: ° ()
Pressure: 29.87in Gusts: 0mph
Raw Report DataKATT 271251Z AUTO VRB04KT 10SM OVC010 21/18 A2987 RMK AO2 SLP103 T02110183
Traffic Incident Summary
Active as of:
Severity:
Category:
InformationThere was an issue retrieving the traffic information for this location. Please try a different location or try again shortly.
Advertisements
Track Severe Weather on mobile